»·PEaware :: N512TN KHII-KRAL

N512TN :: KHII-KRAL

FLIGHT INFORMATION

Flight Status: Arrived
Operator: Privately registered:
United States
More flights under this callsign
Pilot: Steven M. (455)
Aircraft: CIRRUS SR-22
(SR22)
More flights by this aircraft type
Origin: KHII Lake Havasu City
United States
Destination: KRAL Riverside Mun
United States
More flights between these airports :: More routes between these airports
Route: TNP PSP V388 PDZ
File this flight plan on PilotEdge
Remarks:
Altitude:
(Current/Filed)
14,000ft
Speed:
(Current/Filed)
191kts
Departed: 20-Dec-21 10:17 AM
Arrived: 20-Dec-21 11:18 AM
Distance/Time
Traveled:
157nm/1:01
Distance/Time
To Go:
Arrived

Flight Plot

Page will automatically refresh every two minutes.

Flight plan parsing failed; only flown route is shown


Map Options




Map Legend


Flown Route
Filed Route
Departure Airport
Arrival Airport
Navaid (VOR, NDB)
Fix

Horizontal Profiles

Position Reports

Time Latitude Longitude Heading Altitude Ground
Speed
20-Dec-21 09:52 34.569949 -114.360585 57 734ft 0kts
20-Dec-21 09:53 34.569949 -114.360585 57 734ft 0kts
20-Dec-21 09:54 34.569949 -114.360585 57 734ft 0kts
20-Dec-21 09:55 34.569949 -114.360585 57 734ft 0kts
20-Dec-21 09:56 34.569949 -114.360585 57 734ft 0kts
20-Dec-21 09:57 34.569949 -114.360585 57 734ft 0kts
20-Dec-21 09:58 34.569949 -114.360585 57 734ft 0kts
20-Dec-21 09:59 34.569949 -114.360585 57 734ft 0kts
20-Dec-21 10:00 34.569949 -114.360585 57 734ft 0kts
20-Dec-21 10:01 34.569949 -114.360585 57 734ft 0kts
20-Dec-21 10:02 34.569949 -114.360585 57 734ft 0kts
20-Dec-21 10:03 34.569949 -114.360585 57 734ft 0kts
20-Dec-21 10:04 34.569949 -114.360585 57 734ft 0kts
20-Dec-21 10:05 34.569949 -114.360585 57 734ft 0kts
20-Dec-21 10:06 34.570008 -114.359397 57 747ft 4kts
20-Dec-21 10:07 34.568215 -114.357532 138 749ft 10kts
20-Dec-21 10:08 34.564623 -114.354963 151 758ft 13kts
20-Dec-21 10:09 34.561943 -114.353124 175 768ft 7kts
20-Dec-21 10:10 34.561544 -114.353180 74 768ft 0kts
20-Dec-21 10:11 34.561544 -114.353180 74 768ft 0kts
20-Dec-21 10:12 34.561544 -114.353180 74 768ft 0kts
20-Dec-21 10:13 34.561544 -114.353180 74 768ft 0kts
20-Dec-21 10:14 34.561545 -114.353175 74 768ft 0kts
20-Dec-21 10:15 34.561713 -114.351872 24 783ft 9kts
20-Dec-21 10:16 34.581468 -114.366101 326 1595ft 124kts
20-Dec-21 10:17 34.581815 -114.401093 242 3349ft 131kts
20-Dec-21 10:18 34.564512 -114.441928 241 4899ft 139kts
20-Dec-21 10:19 34.547020 -114.483649 241 6493ft 135kts
20-Dec-21 10:20 34.531394 -114.525036 246 7985ft 135kts
20-Dec-21 10:21 34.517334 -114.567377 246 9386ft 136kts
20-Dec-21 10:22 34.503260 -114.609756 247 10746ft 136kts
20-Dec-21 10:23 34.498204 -114.654518 270 12069ft 137kts
20-Dec-21 10:24 34.501257 -114.704913 270 12777ft 158kts
20-Dec-21 10:25 34.504391 -114.755987 270 13862ft 148kts
20-Dec-21 10:26 34.505505 -114.809140 270 14104ft 175kts
20-Dec-21 10:27 34.508624 -114.868841 270 14008ft 174kts
20-Dec-21 10:28 34.511877 -114.926633 271 14011ft 169kts
20-Dec-21 10:29 34.511593 -114.982861 254 14009ft 165kts
20-Dec-21 10:30 34.491701 -115.032989 241 14004ft 166kts
20-Dec-21 10:31 34.467372 -115.080561 238 14008ft 166kts
20-Dec-21 10:32 34.442900 -115.128104 239 13989ft 167kts
20-Dec-21 10:33 34.418372 -115.175972 239 13962ft 166kts
20-Dec-21 10:34 34.394135 -115.223710 239 13980ft 165kts
20-Dec-21 10:35 34.369876 -115.270887 239 13987ft 165kts
20-Dec-21 10:36 34.345694 -115.318024 239 13986ft 165kts
20-Dec-21 10:37 34.321310 -115.365491 239 13986ft 165kts
20-Dec-21 10:38 34.297137 -115.412576 239 13985ft 165kts
20-Dec-21 10:39 34.272826 -115.459755 238 13983ft 165kts
20-Dec-21 10:40 34.248518 -115.506853 238 13986ft 165kts
20-Dec-21 10:41 34.224216 -115.553906 238 13987ft 165kts
20-Dec-21 10:42 34.199899 -115.600956 238 13986ft 165kts
20-Dec-21 10:43 34.175521 -115.648024 238 13983ft 165kts
20-Dec-21 10:44 34.151208 -115.694949 238 13988ft 166kts
20-Dec-21 10:45 34.126678 -115.742213 238 13989ft 166kts
20-Dec-21 10:46 34.104686 -115.790855 245 13985ft 165kts
20-Dec-21 10:47 34.086178 -115.841757 245 13987ft 165kts
20-Dec-21 10:48 34.070768 -115.884131 245 13984ft 165kts
20-Dec-21 10:49 34.049108 -115.943378 245 13985ft 165kts
20-Dec-21 10:50 34.030526 -115.994185 245 13984ft 165kts
20-Dec-21 10:51 34.011919 -116.044933 245 13980ft 165kts
20-Dec-21 10:52 33.993329 -116.095513 245 13986ft 165kts
20-Dec-21 10:53 33.974817 -116.146118 245 13986ft 165kts
20-Dec-21 10:54 33.956142 -116.196870 244 13986ft 165kts
20-Dec-21 10:55 33.937437 -116.248115 244 13925ft 166kts
20-Dec-21 10:56 33.918221 -116.299465 244 13925ft 166kts
20-Dec-21 10:57 33.899479 -116.350525 244 13938ft 165kts
20-Dec-21 10:58 33.880443 -116.401991 245 13937ft 166kts
20-Dec-21 10:59 33.876676 -116.455839 282 13927ft 171kts
20-Dec-21 11:00 33.890532 -116.511367 281 13936ft 172kts
20-Dec-21 11:01 33.904807 -116.566972 282 13930ft 173kts
20-Dec-21 11:02 33.918888 -116.622232 281 13931ft 172kts
20-Dec-21 11:03 33.932885 -116.677710 281 13939ft 172kts
20-Dec-21 11:04 33.947595 -116.735986 280 13379ft 186kts
20-Dec-21 11:06 33.946667 -116.797988 264 12645ft 187kts
20-Dec-21 11:07 33.944646 -116.863081 264 11509ft 195kts
20-Dec-21 11:08 33.942394 -116.928769 264 10316ft 194kts
20-Dec-21 11:09 33.940093 -116.993965 264 9115ft 193kts
20-Dec-21 11:10 33.937815 -117.058073 265 7917ft 188kts
20-Dec-21 11:11 33.935575 -117.120616 266 6705ft 182kts
20-Dec-21 11:12 33.933193 -117.181677 266 5486ft 187kts
20-Dec-21 11:13 33.930489 -117.241982 266 4980ft 163kts
20-Dec-21 11:14 33.925242 -117.296393 269 4252ft 165kts
20-Dec-21 11:15 33.933160 -117.348094 283 2898ft 135kts
20-Dec-21 11:16 33.940903 -117.386382 282 1851ft 103kts
20-Dec-21 11:17 33.947675 -117.419803 282 1131ft 93kts
20-Dec-21 11:18 33.952127 -117.443421 228 818ft 15kts
20-Dec-21 11:19 33.951099 -117.443787 84 818ft 2kts
20-Dec-21 11:20 33.950193 -117.442863 333 818ft 0kts
20-Dec-21 11:21 33.950193 -117.442863 333 818ft 0kts
20-Dec-21 11:22 33.950193 -117.442863 333 818ft 0kts
20-Dec-21 11:23 33.950193 -117.442863 333 818ft 0kts
20-Dec-21 11:24 33.950193 -117.442863 333 818ft 0kts
20-Dec-21 11:25 33.950193 -117.442863 333 818ft 0kts
20-Dec-21 11:26 33.950193 -117.442863 333 818ft 0kts
20-Dec-21 11:27 33.950193 -117.442863 333 818ft 0kts
20-Dec-21 11:28 33.950193 -117.442863 333 818ft 0kts
20-Dec-21 11:29 33.950193 -117.442863 333 818ft 0kts
20-Dec-21 11:30 33.950193 -117.442863 333 818ft 0kts
20-Dec-21 11:31 33.950193 -117.442863 333 818ft 0kts
20-Dec-21 11:31 33.950193 -117.442863 333 818ft 0kts

Navigation Log

Ident Type
Flight plan parsing failed, navigation log unavailable